sensor_id;sensor_type;location;lat;lon;timestamp;temperature;humidity
52709;DHT22;38606;52.986;6.980;2022-09-21T00:00:50;8.40;99.90
52709;DHT22;38606;52.986;6.980;2022-09-21T00:03:16;8.50;99.90
52709;DHT22;38606;52.986;6.980;2022-09-21T00:05:42;8.50;99.90
52709;DHT22;38606;52.986;6.980;2022-09-21T00:08:11;8.40;99.90
52709;DHT22;38606;52.986;6.980;2022-09-21T00:10:38;8.40;99.90
52709;DHT22;38606;52.986;6.980;2022-09-21T00:13:04;8.30;99.90
52709;DHT22;38606;52.986;6.980;2022-09-21T00:15:31;8.30;99.90
52709;DHT22;38606;52.986;6.980;2022-09-21T00:17:58;8.30;99.90
52709;DHT22;38606;52.986;6.980;2022-09-21T00:20:25;8.20;99.90
52709;DHT22;38606;52.986;6.980;2022-09-21T00:22:51;8.30;99.90
52709;DHT22;38606;52.986;6.980;2022-09-21T00:25:19;8.30;99.90
52709;DHT22;38606;52.986;6.980;2022-09-21T00:27:45;8.40;99.90
52709;DHT22;38606;52.986;6.980;2022-09-21T00:30:17;8.20;99.90
52709;DHT22;38606;52.986;6.980;2022-09-21T00:32:43;8.20;99.90
52709;DHT22;38606;52.986;6.980;2022-09-21T00:35:09;8.20;99.90
52709;DHT22;38606;52.986;6.980;2022-09-21T00:37:35;8.10;99.90
52709;DHT22;38606;52.986;6.980;2022-09-21T00:40:02;7.80;99.90
52709;DHT22;38606;52.986;6.980;2022-09-21T00:42:31;8.00;99.90
52709;DHT22;38606;52.986;6.980;2022-09-21T00:44:57;7.90;99.90
52709;DHT22;38606;52.986;6.980;2022-09-21T00:47:37;8.10;99.90
52709;DHT22;38606;52.986;6.980;2022-09-21T00:50:11;8.20;99.90
52709;DHT22;38606;52.986;6.980;2022-09-21T00:52:42;8.00;99.90
52709;DHT22;38606;52.986;6.980;2022-09-21T00:55:21;7.90;99.90
52709;DHT22;38606;52.986;6.980;2022-09-21T00:57:52;7.90;99.90
52709;DHT22;38606;52.986;6.980;2022-09-21T01:00:19;7.90;99.90
52709;DHT22;38606;52.986;6.980;2022-09-21T01:02:46;7.90;99.90
52709;DHT22;38606;52.986;6.980;2022-09-21T01:05:12;7.70;99.90
52709;DHT22;38606;52.986;6.980;2022-09-21T01:07:44;7.90;99.90
52709;DHT22;38606;52.986;6.980;2022-09-21T01:10:17;7.90;99.90
52709;DHT22;38606;52.986;6.980;2022-09-21T01:15:36;7.70;99.90
52709;DHT22;38606;52.986;6.980;2022-09-21T01:21:33;7.70;99.90
52709;DHT22;38606;52.986;6.980;2022-09-21T01:23:48;7.70;99.90
52709;DHT22;38606;52.986;6.980;2022-09-21T01:26:31;7.60;99.90
52709;DHT22;38606;52.986;6.980;2022-09-21T01:29:11;7.60;99.90
52709;DHT22;38606;52.986;6.980;2022-09-21T01:31:54;7.60;99.90
52709;DHT22;38606;52.986;6.980;2022-09-21T01:37:19;7.60;99.90
52709;DHT22;38606;52.986;6.980;2022-09-21T01:39:48;7.60;99.90
52709;DHT22;38606;52.986;6.980;2022-09-21T01:42:16;7.50;99.90
52709;DHT22;38606;52.986;6.980;2022-09-21T01:44:44;7.50;99.90
52709;DHT22;38606;52.986;6.980;2022-09-21T01:47:12;7.40;99.90
52709;DHT22;38606;52.986;6.980;2022-09-21T01:49:52;7.30;99.90
52709;DHT22;38606;52.986;6.980;2022-09-21T01:52:33;7.40;99.90
52709;DHT22;38606;52.986;6.980;2022-09-21T01:55:05;7.50;99.90
52709;DHT22;38606;52.986;6.980;2022-09-21T02:00:37;7.40;99.90
52709;DHT22;38606;52.986;6.980;2022-09-21T02:03:12;7.30;99.90
52709;DHT22;38606;52.986;6.980;2022-09-21T02:05:38;7.50;99.90
52709;DHT22;38606;52.986;6.980;2022-09-21T02:08:05;7.30;99.90
52709;DHT22;38606;52.986;6.980;2022-09-21T02:10:39;7.50;99.90
52709;DHT22;38606;52.986;6.980;2022-09-21T02:13:07;7.20;99.90
52709;DHT22;38606;52.986;6.980;2022-09-21T02:24:27;7.10;99.90
52709;DHT22;38606;52.986;6.980;2022-09-21T02:29:55;7.10;99.90
52709;DHT22;38606;52.986;6.980;2022-09-21T02:32:33;7.20;99.90
52709;DHT22;38606;52.986;6.980;2022-09-21T02:40:53;7.10;99.90
52709;DHT22;38606;52.986;6.980;2022-09-21T02:43:25;7.40;99.90
52709;DHT22;38606;52.986;6.980;2022-09-21T02:46:03;7.80;99.90
52709;DHT22;38606;52.986;6.980;2022-09-21T02:48:46;7.80;99.90
52709;DHT22;38606;52.986;6.980;2022-09-21T02:51:16;7.10;99.90
52709;DHT22;38606;52.986;6.980;2022-09-21T02:53:43;8.40;99.90
52709;DHT22;38606;52.986;6.980;2022-09-21T02:56:12;6.80;99.90
52709;DHT22;38606;52.986;6.980;2022-09-21T02:58:51;7.00;99.90
52709;DHT22;38606;52.986;6.980;2022-09-21T03:01:19;7.00;99.90
52709;DHT22;38606;52.986;6.980;2022-09-21T03:03:47;8.50;99.90
52709;DHT22;38606;52.986;6.980;2022-09-21T03:06:13;7.30;99.90
52709;DHT22;38606;52.986;6.980;2022-09-21T03:08:39;7.40;99.90
52709;DHT22;38606;52.986;6.980;2022-09-21T03:11:05;6.80;99.90
52709;DHT22;38606;52.986;6.980;2022-09-21T03:13:31;7.60;99.90
52709;DHT22;38606;52.986;6.980;2022-09-21T03:16:02;7.20;99.90
52709;DHT22;38606;52.986;6.980;2022-09-21T03:18:29;6.90;99.90
52709;DHT22;38606;52.986;6.980;2022-09-21T03:20:55;8.00;99.90
52709;DHT22;38606;52.986;6.980;2022-09-21T03:23:21;7.90;99.90
52709;DHT22;38606;52.986;6.980;2022-09-21T03:25:47;7.90;99.90
52709;DHT22;38606;52.986;6.980;2022-09-21T03:28:14;7.80;99.90
52709;DHT22;38606;52.986;6.980;2022-09-21T03:30:40;7.90;99.90
52709;DHT22;38606;52.986;6.980;2022-09-21T03:33:05;6.80;99.90
52709;DHT22;38606;52.986;6.980;2022-09-21T03:35:32;6.90;99.90
52709;DHT22;38606;52.986;6.980;2022-09-21T03:38:01;7.40;99.90
52709;DHT22;38606;52.986;6.980;2022-09-21T03:40:27;6.70;99.90
52709;DHT22;38606;52.986;6.980;2022-09-21T03:42:53;8.20;99.90
52709;DHT22;38606;52.986;6.980;2022-09-21T03:45:20;7.30;99.90
52709;DHT22;38606;52.986;6.980;2022-09-21T03:47:56;6.80;99.90
52709;DHT22;38606;52.986;6.980;2022-09-21T03:50:23;6.70;99.90
52709;DHT22;38606;52.986;6.980;2022-09-21T03:52:49;6.90;99.90
52709;DHT22;38606;52.986;6.980;2022-09-21T03:55:14;7.40;99.90
52709;DHT22;38606;52.986;6.980;2022-09-21T03:57:43;6.60;99.90
52709;DHT22;38606;52.986;6.980;2022-09-21T04:00:09;7.10;99.90
52709;DHT22;38606;52.986;6.980;2022-09-21T04:02:37;6.60;99.90
52709;DHT22;38606;52.986;6.980;2022-09-21T04:05:05;6.60;99.90
52709;DHT22;38606;52.986;6.980;2022-09-21T04:07:32;6.50;99.90
52709;DHT22;38606;52.986;6.980;2022-09-21T04:10:03;7.70;99.90
52709;DHT22;38606;52.986;6.980;2022-09-21T04:12:31;6.40;99.90
52709;DHT22;38606;52.986;6.980;2022-09-21T04:15:01;7.80;99.90
52709;DHT22;38606;52.986;6.980;2022-09-21T04:17:28;6.30;99.90
52709;DHT22;38606;52.986;6.980;2022-09-21T04:19:55;6.40;99.90
52709;DHT22;38606;52.986;6.980;2022-09-21T04:22:21;7.20;99.90
52709;DHT22;38606;52.986;6.980;2022-09-21T04:24:49;6.70;99.90
52709;DHT22;38606;52.986;6.980;2022-09-21T04:27:15;6.60;99.90
52709;DHT22;38606;52.986;6.980;2022-09-21T04:29:40;6.50;99.90
52709;DHT22;38606;52.986;6.980;2022-09-21T04:32:06;6.30;99.90
52709;DHT22;38606;52.986;6.980;2022-09-21T04:34:32;6.20;99.90
52709;DHT22;38606;52.986;6.980;2022-09-21T04:36:58;6.30;99.90
52709;DHT22;38606;52.986;6.980;2022-09-21T04:39:25;6.60;99.90
52709;DHT22;38606;52.986;6.980;2022-09-21T04:41:50;7.30;99.90
52709;DHT22;38606;52.986;6.980;2022-09-21T04:44:16;7.10;99.90
52709;DHT22;38606;52.986;6.980;2022-09-21T04:46:45;6.60;99.90
52709;DHT22;38606;52.986;6.980;2022-09-21T04:49:11;7.00;99.90
52709;DHT22;38606;52.986;6.980;2022-09-21T04:51:37;6.40;99.90
52709;DHT22;38606;52.986;6.980;2022-09-21T04:54:03;6.20;99.90
52709;DHT22;38606;52.986;6.980;2022-09-21T04:56:28;6.30;99.90
52709;DHT22;38606;52.986;6.980;2022-09-21T04:58:55;6.30;99.90
52709;DHT22;38606;52.986;6.980;2022-09-21T05:01:20;6.40;99.90
52709;DHT22;38606;52.986;6.980;2022-09-21T05:03:46;6.40;99.90
52709;DHT22;38606;52.986;6.980;2022-09-21T05:06:12;7.70;99.90
52709;DHT22;38606;52.986;6.980;2022-09-21T05:08:38;6.00;99.90
52709;DHT22;38606;52.986;6.980;2022-09-21T05:11:23;6.30;99.90
52709;DHT22;38606;52.986;6.980;2022-09-21T05:13:49;6.20;99.90
52709;DHT22;38606;52.986;6.980;2022-09-21T05:16:16;7.20;99.90
52709;DHT22;38606;52.986;6.980;2022-09-21T05:18:42;6.70;99.90
52709;DHT22;38606;52.986;6.980;2022-09-21T05:21:10;7.30;99.90
52709;DHT22;38606;52.986;6.980;2022-09-21T05:23:36;6.10;99.90
52709;DHT22;38606;52.986;6.980;2022-09-21T05:26:02;6.30;99.90
52709;DHT22;38606;52.986;6.980;2022-09-21T05:28:28;6.10;99.90
52709;DHT22;38606;52.986;6.980;2022-09-21T05:31:03;6.00;99.90
52709;DHT22;38606;52.986;6.980;2022-09-21T05:33:39;6.80;99.90
52709;DHT22;38606;52.986;6.980;2022-09-21T05:38:47;6.10;99.90
52709;DHT22;38606;52.986;6.980;2022-09-21T05:41:13;6.00;99.90
52709;DHT22;38606;52.986;6.980;2022-09-21T05:43:39;5.90;99.90
52709;DHT22;38606;52.986;6.980;2022-09-21T05:46:15;6.30;99.90
52709;DHT22;38606;52.986;6.980;2022-09-21T05:48:53;7.20;99.90
52709;DHT22;38606;52.986;6.980;2022-09-21T05:51:59;7.20;99.90
52709;DHT22;38606;52.986;6.980;2022-09-21T06:00:42;6.10;99.90
52709;DHT22;38606;52.986;6.980;2022-09-21T06:03:28;6.00;99.90
52709;DHT22;38606;52.986;6.980;2022-09-21T06:05:57;6.20;99.90
52709;DHT22;38606;52.986;6.980;2022-09-21T06:08:24;6.10;99.90
52709;DHT22;38606;52.986;6.980;2022-09-21T06:10:51;6.10;99.90
52709;DHT22;38606;52.986;6.980;2022-09-21T06:13:17;6.20;99.90
52709;DHT22;38606;52.986;6.980;2022-09-21T06:15:42;6.30;99.90
52709;DHT22;38606;52.986;6.980;2022-09-21T06:18:09;7.30;99.90
52709;DHT22;38606;52.986;6.980;2022-09-21T06:20:35;6.40;99.90
52709;DHT22;38606;52.986;6.980;2022-09-21T06:23:06;6.40;99.90
52709;DHT22;38606;52.986;6.980;2022-09-21T06:25:32;7.60;99.90
52709;DHT22;38606;52.986;6.980;2022-09-21T06:28:05;6.60;99.90
52709;DHT22;38606;52.986;6.980;2022-09-21T06:30:32;6.50;99.90
52709;DHT22;38606;52.986;6.980;2022-09-21T06:33:03;6.60;99.90
52709;DHT22;38606;52.986;6.980;2022-09-21T06:35:30;6.70;99.90
52709;DHT22;38606;52.986;6.980;2022-09-21T06:38:01;6.40;99.90
52709;DHT22;38606;52.986;6.980;2022-09-21T06:40:28;6.70;99.90
52709;DHT22;38606;52.986;6.980;2022-09-21T06:42:58;7.90;99.90
52709;DHT22;38606;52.986;6.980;2022-09-21T06:45:28;7.10;99.90
52709;DHT22;38606;52.986;6.980;2022-09-21T06:47:54;7.00;99.90
52709;DHT22;38606;52.986;6.980;2022-09-21T06:50:20;7.40;99.90
52709;DHT22;38606;52.986;6.980;2022-09-21T06:52:46;7.40;99.90
52709;DHT22;38606;52.986;6.980;2022-09-21T06:55:12;7.40;99.90
52709;DHT22;38606;52.986;6.980;2022-09-21T06:57:39;7.40;99.90
52709;DHT22;38606;52.986;6.980;2022-09-21T07:00:07;7.70;99.90
52709;DHT22;38606;52.986;6.980;2022-09-21T07:02:33;7.70;99.90
52709;DHT22;38606;52.986;6.980;2022-09-21T07:05:00;7.70;99.90
52709;DHT22;38606;52.986;6.980;2022-09-21T07:07:27;8.10;99.90
52709;DHT22;38606;52.986;6.980;2022-09-21T07:09:55;8.40;99.90
52709;DHT22;38606;52.986;6.980;2022-09-21T07:12:20;9.50;99.90
52709;DHT22;38606;52.986;6.980;2022-09-21T07:14:46;9.20;99.90
52709;DHT22;38606;52.986;6.980;2022-09-21T07:17:12;9.40;99.90
52709;DHT22;38606;52.986;6.980;2022-09-21T07:19:39;8.30;99.90
52709;DHT22;38606;52.986;6.980;2022-09-21T07:22:05;9.60;99.90
52709;DHT22;38606;52.986;6.980;2022-09-21T07:24:31;9.00;99.90
52709;DHT22;38606;52.986;6.980;2022-09-21T07:26:57;8.70;99.90
52709;DHT22;38606;52.986;6.980;2022-09-21T07:29:23;8.90;99.90
52709;DHT22;38606;52.986;6.980;2022-09-21T07:31:49;9.10;99.90
52709;DHT22;38606;52.986;6.980;2022-09-21T07:34:15;9.10;99.90
52709;DHT22;38606;52.986;6.980;2022-09-21T07:36:41;9.20;99.90
52709;DHT22;38606;52.986;6.980;2022-09-21T07:39:10;9.70;99.90
52709;DHT22;38606;52.986;6.980;2022-09-21T07:41:36;9.70;99.90
52709;DHT22;38606;52.986;6.980;2022-09-21T07:44:03;9.80;99.90
52709;DHT22;38606;52.986;6.980;2022-09-21T07:46:29;9.80;99.90
52709;DHT22;38606;52.986;6.980;2022-09-21T07:48:55;10.10;99.90
52709;DHT22;38606;52.986;6.980;2022-09-21T07:51:22;10.10;99.90
52709;DHT22;38606;52.986;6.980;2022-09-21T07:53:53;11.60;99.90
52709;DHT22;38606;52.986;6.980;2022-09-21T07:56:21;10.60;99.90
52709;DHT22;38606;52.986;6.980;2022-09-21T07:58:46;10.70;99.90
52709;DHT22;38606;52.986;6.980;2022-09-21T08:01:31;11.00;99.90
52709;DHT22;38606;52.986;6.980;2022-09-21T08:03:57;11.40;99.90
52709;DHT22;38606;52.986;6.980;2022-09-21T08:06:25;12.50;99.90
52709;DHT22;38606;52.986;6.980;2022-09-21T08:08:52;11.60;99.90
52709;DHT22;38606;52.986;6.980;2022-09-21T08:11:20;11.40;99.90
52709;DHT22;38606;52.986;6.980;2022-09-21T08:13:47;11.80;99.90
52709;DHT22;38606;52.986;6.980;2022-09-21T08:16:13;11.60;99.90
52709;DHT22;38606;52.986;6.980;2022-09-21T08:18:39;12.00;99.90
52709;DHT22;38606;52.986;6.980;2022-09-21T08:21:07;12.00;99.90
52709;DHT22;38606;52.986;6.980;2022-09-21T08:23:33;13.40;99.90
52709;DHT22;38606;52.986;6.980;2022-09-21T08:26:04;12.60;99.90
52709;DHT22;38606;52.986;6.980;2022-09-21T08:28:31;12.60;99.90
52709;DHT22;38606;52.986;6.980;2022-09-21T08:31:03;12.50;99.90
52709;DHT22;38606;52.986;6.980;2022-09-21T08:33:29;12.90;99.90
52709;DHT22;38606;52.986;6.980;2022-09-21T08:35:56;13.10;99.90
52709;DHT22;38606;52.986;6.980;2022-09-21T08:38:22;13.10;99.90
52709;DHT22;38606;52.986;6.980;2022-09-21T08:40:48;13.10;99.90
52709;DHT22;38606;52.986;6.980;2022-09-21T08:45:45;13.40;99.90
52709;DHT22;38606;52.986;6.980;2022-09-21T08:48:19;13.70;99.90
52709;DHT22;38606;52.986;6.980;2022-09-21T08:50:59;13.70;99.90
52709;DHT22;38606;52.986;6.980;2022-09-21T08:53:36;14.00;99.90
52709;DHT22;38606;52.986;6.980;2022-09-21T08:56:03;14.10;99.90
52709;DHT22;38606;52.986;6.980;2022-09-21T08:58:31;14.20;99.90
52709;DHT22;38606;52.986;6.980;2022-09-21T09:04:25;14.40;99.90
52709;DHT22;38606;52.986;6.980;2022-09-21T09:12:20;14.60;99.90
52709;DHT22;38606;52.986;6.980;2022-09-21T09:14:54;14.90;99.90
52709;DHT22;38606;52.986;6.980;2022-09-21T09:20:15;14.90;99.90
52709;DHT22;38606;52.986;6.980;2022-09-21T09:23:04;15.00;99.90
52709;DHT22;38606;52.986;6.980;2022-09-21T09:25:38;15.30;99.90
52709;DHT22;38606;52.986;6.980;2022-09-21T09:31:17;15.60;99.90
52709;DHT22;38606;52.986;6.980;2022-09-21T09:33:51;15.60;99.90
52709;DHT22;38606;52.986;6.980;2022-09-21T09:36:18;15.70;99.90
52709;DHT22;38606;52.986;6.980;2022-09-21T09:41:34;15.90;99.90
52709;DHT22;38606;52.986;6.980;2022-09-21T09:52:23;16.50;99.90
52709;DHT22;38606;52.986;6.980;2022-09-21T09:54:48;16.60;99.90
52709;DHT22;38606;52.986;6.980;2022-09-21T09:57:19;16.60;99.90
52709;DHT22;38606;52.986;6.980;2022-09-21T09:59:52;16.80;99.90
52709;DHT22;38606;52.986;6.980;2022-09-21T10:02:23;16.70;99.90
52709;DHT22;38606;52.986;6.980;2022-09-21T10:05:00;17.00;99.90
52709;DHT22;38606;52.986;6.980;2022-09-21T10:07:34;17.10;99.90
52709;DHT22;38606;52.986;6.980;2022-09-21T10:10:00;17.00;99.90
52709;DHT22;38606;52.986;6.980;2022-09-21T10:12:26;16.60;99.90
52709;DHT22;38606;52.986;6.980;2022-09-21T10:14:55;16.90;99.90
52709;DHT22;38606;52.986;6.980;2022-09-21T10:17:23;16.70;99.90
52709;DHT22;38606;52.986;6.980;2022-09-21T10:19:58;16.70;99.90
52709;DHT22;38606;52.986;6.980;2022-09-21T10:22:25;16.60;99.90
52709;DHT22;38606;52.986;6.980;2022-09-21T10:24:52;16.50;99.90
52709;DHT22;38606;52.986;6.980;2022-09-21T10:27:24;16.60;99.90
52709;DHT22;38606;52.986;6.980;2022-09-21T10:29:51;16.50;99.90
52709;DHT22;38606;52.986;6.980;2022-09-21T10:32:23;16.70;99.90
52709;DHT22;38606;52.986;6.980;2022-09-21T10:37:45;16.70;99.90
52709;DHT22;38606;52.986;6.980;2022-09-21T10:40:25;16.90;99.90
52709;DHT22;38606;52.986;6.980;2022-09-21T10:42:56;16.70;99.90
52709;DHT22;38606;52.986;6.980;2022-09-21T10:45:31;16.60;99.90
52709;DHT22;38606;52.986;6.980;2022-09-21T10:48:19;16.60;99.90
52709;DHT22;38606;52.986;6.980;2022-09-21T10:50:44;16.50;99.90
52709;DHT22;38606;52.986;6.980;2022-09-21T10:53:32;16.60;99.90
52709;DHT22;38606;52.986;6.980;2022-09-21T10:56:16;16.50;99.90
52709;DHT22;38606;52.986;6.980;2022-09-21T11:01:51;16.20;99.90
52709;DHT22;38606;52.986;6.980;2022-09-21T11:07:30;16.30;99.90
52709;DHT22;38606;52.986;6.980;2022-09-21T11:10:07;16.20;99.90
52709;DHT22;38606;52.986;6.980;2022-09-21T11:12:44;16.50;99.90
52709;DHT22;38606;52.986;6.980;2022-09-21T11:18:21;16.50;99.90
52709;DHT22;38606;52.986;6.980;2022-09-21T11:26:39;16.70;99.90
52709;DHT22;38606;52.986;6.980;2022-09-21T11:29:16;16.90;99.90
52709;DHT22;38606;52.986;6.980;2022-09-21T11:32:03;17.10;99.90
52709;DHT22;38606;52.986;6.980;2022-09-21T11:48:07;17.50;99.90
52709;DHT22;38606;52.986;6.980;2022-09-21T11:56:29;17.80;99.90
52709;DHT22;38606;52.986;6.980;2022-09-21T12:02:19;17.60;99.90
52709;DHT22;38606;52.986;6.980;2022-09-21T12:04:49;17.70;99.90
52709;DHT22;38606;52.986;6.980;2022-09-21T12:07:21;17.40;99.90
52709;DHT22;38606;52.986;6.980;2022-09-21T12:13:05;17.60;99.90
52709;DHT22;38606;52.986;6.980;2022-09-21T12:15:42;17.50;99.90
52709;DHT22;38606;52.986;6.980;2022-09-21T12:21:17;17.40;99.90
52709;DHT22;38606;52.986;6.980;2022-09-21T12:24:00;17.50;99.90
52709;DHT22;38606;52.986;6.980;2022-09-21T12:26:32;17.70;99.90
52709;DHT22;38606;52.986;6.980;2022-09-21T12:29:04;17.90;99.90
52709;DHT22;38606;52.986;6.980;2022-09-21T12:31:37;17.80;99.90
52709;DHT22;38606;52.986;6.980;2022-09-21T12:34:52;17.80;99.90
52709;DHT22;38606;52.986;6.980;2022-09-21T12:47:51;17.90;99.90
52709;DHT22;38606;52.986;6.980;2022-09-21T12:53:15;18.20;99.90
52709;DHT22;38606;52.986;6.980;2022-09-21T13:01:46;18.10;99.90
52709;DHT22;38606;52.986;6.980;2022-09-21T13:10:13;18.40;99.90
52709;DHT22;38606;52.986;6.980;2022-09-21T13:12:44;18.60;99.90
52709;DHT22;38606;52.986;6.980;2022-09-21T13:15:31;18.80;99.90
52709;DHT22;38606;52.986;6.980;2022-09-21T13:18:02;18.70;99.90
52709;DHT22;38606;52.986;6.980;2022-09-21T13:20:48;18.40;99.90
52709;DHT22;38606;52.986;6.980;2022-09-21T13:23:25;18.70;99.50
52709;DHT22;38606;52.986;6.980;2022-09-21T13:26:05;18.40;98.60
52709;DHT22;38606;52.986;6.980;2022-09-21T13:34:27;18.80;95.40
52709;DHT22;38606;52.986;6.980;2022-09-21T13:47:35;18.50;99.00
52709;DHT22;38606;52.986;6.980;2022-09-21T13:52:52;18.50;97.90
52709;DHT22;38606;52.986;6.980;2022-09-21T13:55:34;18.60;97.50
52709;DHT22;38606;52.986;6.980;2022-09-21T13:58:05;18.40;96.30
52709;DHT22;38606;52.986;6.980;2022-09-21T14:00:59;18.20;97.10
52709;DHT22;38606;52.986;6.980;2022-09-21T14:03:38;17.20;98.20
52709;DHT22;38606;52.986;6.980;2022-09-21T14:06:15;18.00;97.20
52709;DHT22;38606;52.986;6.980;2022-09-21T14:08:49;18.20;98.30
52709;DHT22;38606;52.986;6.980;2022-09-21T14:11:21;18.00;97.60
52709;DHT22;38606;52.986;6.980;2022-09-21T14:18:59;18.00;98.90
52709;DHT22;38606;52.986;6.980;2022-09-21T14:21:26;17.80;98.40
52709;DHT22;38606;52.986;6.980;2022-09-21T14:24:17;17.60;98.00
52709;DHT22;38606;52.986;6.980;2022-09-21T14:29:42;17.80;98.70
52709;DHT22;38606;52.986;6.980;2022-09-21T14:32:29;17.70;99.40
52709;DHT22;38606;52.986;6.980;2022-09-21T14:35:05;17.80;98.70
52709;DHT22;38606;52.986;6.980;2022-09-21T14:37:41;17.60;98.50
52709;DHT22;38606;52.986;6.980;2022-09-21T14:40:22;17.50;98.20
52709;DHT22;38606;52.986;6.980;2022-09-21T14:42:49;17.70;98.60
52709;DHT22;38606;52.986;6.980;2022-09-21T14:45:19;17.80;98.50
52709;DHT22;38606;52.986;6.980;2022-09-21T14:50:44;17.70;98.50
52709;DHT22;38606;52.986;6.980;2022-09-21T14:58:59;17.50;99.40
52709;DHT22;38606;52.986;6.980;2022-09-21T15:07:17;17.50;99.00
52709;DHT22;38606;52.986;6.980;2022-09-21T15:21:49;17.20;99.70
52709;DHT22;38606;52.986;6.980;2022-09-21T15:24:22;17.00;99.90
52709;DHT22;38606;52.986;6.980;2022-09-21T15:26:50;17.20;99.80
52709;DHT22;38606;52.986;6.980;2022-09-21T15:29:28;17.10;99.30
52709;DHT22;38606;52.986;6.980;2022-09-21T15:31:54;17.20;99.40
52709;DHT22;38606;52.986;6.980;2022-09-21T15:34:23;17.00;99.10
52709;DHT22;38606;52.986;6.980;2022-09-21T15:36:49;17.10;99.30
52709;DHT22;38606;52.986;6.980;2022-09-21T15:39:34;16.90;99.70
52709;DHT22;38606;52.986;6.980;2022-09-21T15:44:35;19.20;99.90
52709;DHT22;38606;52.986;6.980;2022-09-21T15:47:10;17.10;99.90
52709;DHT22;38606;52.986;6.980;2022-09-21T15:49:37;16.90;99.90
52709;DHT22;38606;52.986;6.980;2022-09-21T15:54:58;17.10;99.90
52709;DHT22;38606;52.986;6.980;2022-09-21T15:57:40;16.80;99.90
52709;DHT22;38606;52.986;6.980;2022-09-21T16:02:57;16.90;99.90
52709;DHT22;38606;52.986;6.980;2022-09-21T16:05:30;16.90;99.90
52709;DHT22;38606;52.986;6.980;2022-09-21T16:08:06;16.90;99.90
52709;DHT22;38606;52.986;6.980;2022-09-21T16:10:39;16.80;99.90
52709;DHT22;38606;52.986;6.980;2022-09-21T16:13:18;16.60;99.90
52709;DHT22;38606;52.986;6.980;2022-09-21T16:16:11;16.80;99.90
52709;DHT22;38606;52.986;6.980;2022-09-21T16:18:41;15.70;99.90
52709;DHT22;38606;52.986;6.980;2022-09-21T16:23:47;16.60;99.90
52709;DHT22;38606;52.986;6.980;2022-09-21T16:26:29;16.70;99.90
52709;DHT22;38606;52.986;6.980;2022-09-21T16:29:20;16.00;99.90
52709;DHT22;38606;52.986;6.980;2022-09-21T16:31:48;16.70;99.90
52709;DHT22;38606;52.986;6.980;2022-09-21T16:34:31;16.40;99.90
52709;DHT22;38606;52.986;6.980;2022-09-21T16:37:26;16.40;99.90
52709;DHT22;38606;52.986;6.980;2022-09-21T16:39:54;16.40;99.90
52709;DHT22;38606;52.986;6.980;2022-09-21T16:42:21;16.40;99.90
52709;DHT22;38606;52.986;6.980;2022-09-21T16:44:48;16.20;99.90
52709;DHT22;38606;52.986;6.980;2022-09-21T16:47:36;16.30;99.90
52709;DHT22;38606;52.986;6.980;2022-09-21T16:50:05;16.30;99.90
52709;DHT22;38606;52.986;6.980;2022-09-21T16:52:33;16.30;99.90
52709;DHT22;38606;52.986;6.980;2022-09-21T16:54:59;16.10;99.90
52709;DHT22;38606;52.986;6.980;2022-09-21T16:57:25;16.00;99.90
52709;DHT22;38606;52.986;6.980;2022-09-21T16:59:51;16.00;99.90
52709;DHT22;38606;52.986;6.980;2022-09-21T17:02:17;15.80;99.90
52709;DHT22;38606;52.986;6.980;2022-09-21T17:04:43;15.90;99.90
52709;DHT22;38606;52.986;6.980;2022-09-21T17:07:10;15.90;99.90
52709;DHT22;38606;52.986;6.980;2022-09-21T17:09:41;15.80;99.90
52709;DHT22;38606;52.986;6.980;2022-09-21T17:12:13;15.40;99.90
52709;DHT22;38606;52.986;6.980;2022-09-21T17:14:39;15.50;99.90
52709;DHT22;38606;52.986;6.980;2022-09-21T17:17:12;15.50;99.90
52709;DHT22;38606;52.986;6.980;2022-09-21T17:19:40;15.50;99.90
52709;DHT22;38606;52.986;6.980;2022-09-21T17:22:08;15.40;99.90
52709;DHT22;38606;52.986;6.980;2022-09-21T17:24:35;15.30;99.90
52709;DHT22;38606;52.986;6.980;2022-09-21T17:27:01;15.30;99.90
52709;DHT22;38606;52.986;6.980;2022-09-21T17:29:27;15.10;99.90
52709;DHT22;38606;52.986;6.980;2022-09-21T17:31:55;15.00;99.90
52709;DHT22;38606;52.986;6.980;2022-09-21T17:34:23;14.80;99.90
52709;DHT22;38606;52.986;6.980;2022-09-21T17:36:50;14.60;99.90
52709;DHT22;38606;52.986;6.980;2022-09-21T17:39:16;14.70;99.90
52709;DHT22;38606;52.986;6.980;2022-09-21T17:46:58;14.50;99.90
52709;DHT22;38606;52.986;6.980;2022-09-21T17:49:25;14.20;99.90
52709;DHT22;38606;52.986;6.980;2022-09-21T17:51:51;14.40;99.90
52709;DHT22;38606;52.986;6.980;2022-09-21T17:54:35;14.10;99.90
52709;DHT22;38606;52.986;6.980;2022-09-21T17:59:53;14.20;99.90
52709;DHT22;38606;52.986;6.980;2022-09-21T18:02:24;13.90;99.90
52709;DHT22;38606;52.986;6.980;2022-09-21T18:04:57;13.70;99.90
52709;DHT22;38606;52.986;6.980;2022-09-21T18:07:24;13.70;99.90
52709;DHT22;38606;52.986;6.980;2022-09-21T18:09:50;13.50;99.90
52709;DHT22;38606;52.986;6.980;2022-09-21T18:12:34;13.60;99.90
52709;DHT22;38606;52.986;6.980;2022-09-21T18:15:20;13.50;99.90
52709;DHT22;38606;52.986;6.980;2022-09-21T18:18:11;13.30;99.90
52709;DHT22;38606;52.986;6.980;2022-09-21T18:21:02;13.00;99.90
52709;DHT22;38606;52.986;6.980;2022-09-21T18:26:17;12.90;99.90
52709;DHT22;38606;52.986;6.980;2022-09-21T18:28:46;12.80;99.90
52709;DHT22;38606;52.986;6.980;2022-09-21T18:31:40;12.80;99.90
52709;DHT22;38606;52.986;6.980;2022-09-21T18:34:41;12.30;99.90
52709;DHT22;38606;52.986;6.980;2022-09-21T18:37:29;12.60;99.90
52709;DHT22;38606;52.986;6.980;2022-09-21T18:45:41;12.40;99.90
52709;DHT22;38606;52.986;6.980;2022-09-21T18:50:58;12.20;99.90
52709;DHT22;38606;52.986;6.980;2022-09-21T18:53:54;12.20;99.90
52709;DHT22;38606;52.986;6.980;2022-09-21T18:56:31;11.20;99.90
52709;DHT22;38606;52.986;6.980;2022-09-21T18:58:58;12.00;99.90
52709;DHT22;38606;52.986;6.980;2022-09-21T19:01:24;11.80;99.90
52709;DHT22;38606;52.986;6.980;2022-09-21T19:03:53;11.80;99.90
52709;DHT22;38606;52.986;6.980;2022-09-21T19:11:52;11.80;99.90
52709;DHT22;38606;52.986;6.980;2022-09-21T19:25:45;11.30;99.90
52709;DHT22;38606;52.986;6.980;2022-09-21T19:28:37;11.40;99.90
52709;DHT22;38606;52.986;6.980;2022-09-21T19:31:13;11.30;99.90
52709;DHT22;38606;52.986;6.980;2022-09-21T19:33:39;11.30;99.90
52709;DHT22;38606;52.986;6.980;2022-09-21T19:36:07;11.40;99.90
52709;DHT22;38606;52.986;6.980;2022-09-21T19:38:33;11.20;99.90
52709;DHT22;38606;52.986;6.980;2022-09-21T19:41:03;11.20;99.90
52709;DHT22;38606;52.986;6.980;2022-09-21T19:46:46;11.10;99.90
52709;DHT22;38606;52.986;6.980;2022-09-21T19:49:17;10.80;99.90
52709;DHT22;38606;52.986;6.980;2022-09-21T19:51:51;11.00;99.90
52709;DHT22;38606;52.986;6.980;2022-09-21T19:54:19;11.00;99.90
52709;DHT22;38606;52.986;6.980;2022-09-21T19:57:18;10.90;99.90
52709;DHT22;38606;52.986;6.980;2022-09-21T20:00:09;10.70;99.90
52709;DHT22;38606;52.986;6.980;2022-09-21T20:05:21;10.90;99.90
52709;DHT22;38606;52.986;6.980;2022-09-21T20:11:32;10.80;99.90